Terminal Aerodrome Forecast
Issued by NWS

Home | Current Version | Previous Version | Text Only | Print | Product List | Glossary On
Versions: 1 2 3 4 5 6 7 8 9 10 11 12 13 14 15 16 17 18
000
FTUS45 KABQ 051300 AAA
TAFROW
TAF AMD
KROW 051323Z 0513/0612 31008KT P6SM SCT009 BKN040
     FM051600 19010G17KT P6SM SCT025 BKN100
     FM052000 22016G26KT P6SM VCTS SCT040CB BKN120
     FM060200 20010KT P6SM SCT120=

USA.gov is the U.S. government's official web portal to all federal, state and local government web resources and services.